sensor_id;sensor_type;location;lat;lon;timestamp;P1;durP1;ratioP1;P2;durP2;ratioP2
60088;SDS011;45961;53.574;55.878;2022-10-31T00:00:16;2.35;;;1.15;;
60088;SDS011;45961;53.574;55.878;2022-10-31T00:01:22;1.25;;;1.15;;
60088;SDS011;45961;53.574;55.878;2022-10-31T00:02:25;1.20;;;1.00;;
60088;SDS011;45961;53.574;55.878;2022-10-31T00:03:26;1.52;;;1.42;;
60088;SDS011;45961;53.574;55.878;2022-10-31T00:04:27;1.83;;;1.73;;
60088;SDS011;45961;53.574;55.878;2022-10-31T00:05:28;1.58;;;1.27;;
60088;SDS011;45961;53.574;55.878;2022-10-31T00:06:29;1.50;;;1.20;;
60088;SDS011;45961;53.574;55.878;2022-10-31T00:07:30;1.55;;;1.30;;
60088;SDS011;45961;53.574;55.878;2022-10-31T00:08:34;1.45;;;1.35;;
60088;SDS011;45961;53.574;55.878;2022-10-31T00:09:35;1.65;;;1.30;;
60088;SDS011;45961;53.574;55.878;2022-10-31T00:10:37;1.40;;;1.30;;
60088;SDS011;45961;53.574;55.878;2022-10-31T00:11:39;1.60;;;1.45;;
60088;SDS011;45961;53.574;55.878;2022-10-31T00:12:40;2.28;;;1.40;;
60088;SDS011;45961;53.574;55.878;2022-10-31T00:13:41;2.88;;;1.23;;
60088;SDS011;45961;53.574;55.878;2022-10-31T00:14:42;1.25;;;1.15;;
60088;SDS011;45961;53.574;55.878;2022-10-31T00:15:42;2.00;;;1.20;;
60088;SDS011;45961;53.574;55.878;2022-10-31T00:16:44;1.30;;;1.17;;
60088;SDS011;45961;53.574;55.878;2022-10-31T00:17:44;1.00;;;0.90;;
60088;SDS011;45961;53.574;55.878;2022-10-31T00:18:49;1.15;;;1.05;;
60088;SDS011;45961;53.574;55.878;2022-10-31T00:19:53;1.92;;;1.38;;
60088;SDS011;45961;53.574;55.878;2022-10-31T00:21:03;1.55;;;1.30;;
60088;SDS011;45961;53.574;55.878;2022-10-31T00:22:04;1.38;;;1.27;;
60088;SDS011;45961;53.574;55.878;2022-10-31T00:23:06;1.33;;;0.90;;
60088;SDS011;45961;53.574;55.878;2022-10-31T00:24:07;0.70;;;0.70;;
60088;SDS011;45961;53.574;55.878;2022-10-31T00:25:08;1.83;;;0.93;;
60088;SDS011;45961;53.574;55.878;2022-10-31T00:26:09;1.42;;;1.25;;
60088;SDS011;45961;53.574;55.878;2022-10-31T00:28:11;0.82;;;0.82;;
60088;SDS011;45961;53.574;55.878;2022-10-31T00:29:12;1.00;;;0.90;;
60088;SDS011;45961;53.574;55.878;2022-10-31T00:30:13;1.70;;;1.33;;
60088;SDS011;45961;53.574;55.878;2022-10-31T00:31:16;1.20;;;1.10;;
60088;SDS011;45961;53.574;55.878;2022-10-31T00:32:18;1.25;;;0.88;;
60088;SDS011;45961;53.574;55.878;2022-10-31T00:33:19;1.85;;;1.40;;
60088;SDS011;45961;53.574;55.878;2022-10-31T00:34:20;1.23;;;0.90;;
60088;SDS011;45961;53.574;55.878;2022-10-31T00:35:21;1.30;;;1.20;;
60088;SDS011;45961;53.574;55.878;2022-10-31T00:36:22;1.48;;;1.35;;
60088;SDS011;45961;53.574;55.878;2022-10-31T00:37:23;2.50;;;1.38;;
60088;SDS011;45961;53.574;55.878;2022-10-31T00:38:24;1.80;;;1.17;;
60088;SDS011;45961;53.574;55.878;2022-10-31T00:39:25;1.90;;;1.42;;
60088;SDS011;45961;53.574;55.878;2022-10-31T00:40:26;1.30;;;1.20;;
60088;SDS011;45961;53.574;55.878;2022-10-31T00:42:30;1.17;;;1.08;;
60088;SDS011;45961;53.574;55.878;2022-10-31T00:43:32;1.45;;;1.30;;
60088;SDS011;45961;53.574;55.878;2022-10-31T00:44:33;1.85;;;1.38;;
60088;SDS011;45961;53.574;55.878;2022-10-31T00:45:34;3.60;;;1.40;;
60088;SDS011;45961;53.574;55.878;2022-10-31T00:46:35;1.65;;;1.50;;
60088;SDS011;45961;53.574;55.878;2022-10-31T00:47:36;2.47;;;1.95;;
60088;SDS011;45961;53.574;55.878;2022-10-31T00:49:38;3.95;;;1.60;;
60088;SDS011;45961;53.574;55.878;2022-10-31T00:50:39;1.63;;;1.52;;
60088;SDS011;45961;53.574;55.878;2022-10-31T00:51:41;3.67;;;1.63;;
60088;SDS011;45961;53.574;55.878;2022-10-31T00:52:42;2.72;;;1.48;;
60088;SDS011;45961;53.574;55.878;2022-10-31T00:53:43;2.10;;;1.73;;
60088;SDS011;45961;53.574;55.878;2022-10-31T00:54:44;2.83;;;1.92;;
60088;SDS011;45961;53.574;55.878;2022-10-31T00:55:45;2.15;;;1.90;;
60088;SDS011;45961;53.574;55.878;2022-10-31T00:56:47;3.63;;;1.98;;
60088;SDS011;45961;53.574;55.878;2022-10-31T00:57:48;2.08;;;1.85;;
60088;SDS011;45961;53.574;55.878;2022-10-31T00:58:49;2.97;;;2.30;;
60088;SDS011;45961;53.574;55.878;2022-10-31T00:59:50;3.00;;;1.88;;
60088;SDS011;45961;53.574;55.878;2022-10-31T01:00:51;2.15;;;1.95;;
60088;SDS011;45961;53.574;55.878;2022-10-31T01:01:55;2.75;;;2.30;;
60088;SDS011;45961;53.574;55.878;2022-10-31T01:02:56;2.53;;;2.33;;
60088;SDS011;45961;53.574;55.878;2022-10-31T01:03:57;1.70;;;1.60;;
60088;SDS011;45961;53.574;55.878;2022-10-31T01:04:58;2.45;;;1.90;;
60088;SDS011;45961;53.574;55.878;2022-10-31T01:06:09;2.90;;;2.33;;
60088;SDS011;45961;53.574;55.878;2022-10-31T01:07:12;2.10;;;1.77;;
60088;SDS011;45961;53.574;55.878;2022-10-31T01:08:14;2.17;;;1.98;;
60088;SDS011;45961;53.574;55.878;2022-10-31T01:09:17;2.08;;;1.80;;
60088;SDS011;45961;53.574;55.878;2022-10-31T01:10:18;2.90;;;1.60;;
60088;SDS011;45961;53.574;55.878;2022-10-31T01:11:20;1.95;;;1.50;;
60088;SDS011;45961;53.574;55.878;2022-10-31T01:12:22;2.08;;;1.40;;
60088;SDS011;45961;53.574;55.878;2022-10-31T01:13:26;1.85;;;1.52;;
60088;SDS011;45961;53.574;55.878;2022-10-31T01:14:27;2.17;;;1.58;;
60088;SDS011;45961;53.574;55.878;2022-10-31T01:15:31;1.40;;;1.27;;
60088;SDS011;45961;53.574;55.878;2022-10-31T01:16:33;1.45;;;1.35;;
60088;SDS011;45961;53.574;55.878;2022-10-31T01:17:34;2.22;;;1.85;;
60088;SDS011;45961;53.574;55.878;2022-10-31T01:18:35;1.40;;;1.30;;
60088;SDS011;45961;53.574;55.878;2022-10-31T01:20:37;1.42;;;1.30;;
60088;SDS011;45961;53.574;55.878;2022-10-31T01:21:38;1.50;;;1.38;;
60088;SDS011;45961;53.574;55.878;2022-10-31T01:22:39;1.20;;;1.00;;
60088;SDS011;45961;53.574;55.878;2022-10-31T01:23:40;1.20;;;1.08;;
60088;SDS011;45961;53.574;55.878;2022-10-31T01:24:42;1.42;;;1.25;;
60088;SDS011;45961;53.574;55.878;2022-10-31T01:25:43;1.40;;;1.30;;
60088;SDS011;45961;53.574;55.878;2022-10-31T01:26:44;1.10;;;0.90;;
60088;SDS011;45961;53.574;55.878;2022-10-31T01:27:45;1.27;;;1.10;;
60088;SDS011;45961;53.574;55.878;2022-10-31T01:28:47;1.25;;;1.00;;
60088;SDS011;45961;53.574;55.878;2022-10-31T01:29:50;1.40;;;1.30;;
60088;SDS011;45961;53.574;55.878;2022-10-31T01:30:51;1.30;;;1.00;;
60088;SDS011;45961;53.574;55.878;2022-10-31T01:31:53;1.15;;;1.05;;
60088;SDS011;45961;53.574;55.878;2022-10-31T01:32:54;1.23;;;0.98;;
60088;SDS011;45961;53.574;55.878;2022-10-31T01:33:55;1.42;;;1.20;;
60088;SDS011;45961;53.574;55.878;2022-10-31T01:34:57;1.00;;;0.90;;
60088;SDS011;45961;53.574;55.878;2022-10-31T01:35:59;1.15;;;1.00;;
60088;SDS011;45961;53.574;55.878;2022-10-31T01:37:00;1.10;;;1.00;;
60088;SDS011;45961;53.574;55.878;2022-10-31T01:38:01;0.82;;;0.82;;
60088;SDS011;45961;53.574;55.878;2022-10-31T01:39:06;1.13;;;1.02;;
60088;SDS011;45961;53.574;55.878;2022-10-31T01:40:09;1.55;;;1.25;;
60088;SDS011;45961;53.574;55.878;2022-10-31T01:42:15;1.90;;;1.42;;
60088;SDS011;45961;53.574;55.878;2022-10-31T01:43:22;3.70;;;1.10;;
60088;SDS011;45961;53.574;55.878;2022-10-31T01:45:24;1.10;;;0.98;;
60088;SDS011;45961;53.574;55.878;2022-10-31T01:47:32;1.20;;;1.10;;
60088;SDS011;45961;53.574;55.878;2022-10-31T01:48:35;1.30;;;1.20;;
60088;SDS011;45961;53.574;55.878;2022-10-31T01:49:46;1.45;;;1.35;;
60088;SDS011;45961;53.574;55.878;2022-10-31T01:50:52;1.50;;;1.40;;
60088;SDS011;45961;53.574;55.878;2022-10-31T01:51:56;1.25;;;1.15;;
60088;SDS011;45961;53.574;55.878;2022-10-31T01:53:00;2.03;;;1.45;;
60088;SDS011;45961;53.574;55.878;2022-10-31T01:54:06;1.25;;;1.05;;
60088;SDS011;45961;53.574;55.878;2022-10-31T01:55:13;1.30;;;1.20;;
60088;SDS011;45961;53.574;55.878;2022-10-31T01:56:18;4.72;;;1.30;;
60088;SDS011;45961;53.574;55.878;2022-10-31T01:57:19;1.20;;;1.05;;
60088;SDS011;45961;53.574;55.878;2022-10-31T01:58:25;2.17;;;1.60;;
60088;SDS011;45961;53.574;55.878;2022-10-31T01:59:30;2.47;;;1.60;;
60088;SDS011;45961;53.574;55.878;2022-10-31T02:00:36;1.90;;;1.40;;
60088;SDS011;45961;53.574;55.878;2022-10-31T02:01:39;1.63;;;1.30;;
60088;SDS011;45961;53.574;55.878;2022-10-31T02:02:41;1.20;;;1.10;;
60088;SDS011;45961;53.574;55.878;2022-10-31T02:03:43;2.53;;;1.55;;
60088;SDS011;45961;53.574;55.878;2022-10-31T02:04:46;1.85;;;1.65;;
60088;SDS011;45961;53.574;55.878;2022-10-31T02:05:55;1.58;;;1.38;;
60088;SDS011;45961;53.574;55.878;2022-10-31T02:06:58;1.60;;;1.50;;
60088;SDS011;45961;53.574;55.878;2022-10-31T02:09:23;1.67;;;1.58;;
60088;SDS011;45961;53.574;55.878;2022-10-31T02:10:25;1.90;;;1.50;;
60088;SDS011;45961;53.574;55.878;2022-10-31T02:11:28;1.95;;;1.70;;
60088;SDS011;45961;53.574;55.878;2022-10-31T02:12:30;1.88;;;1.73;;
60088;SDS011;45961;53.574;55.878;2022-10-31T02:13:34;2.00;;;1.80;;
60088;SDS011;45961;53.574;55.878;2022-10-31T02:14:35;2.47;;;2.28;;
60088;SDS011;45961;53.574;55.878;2022-10-31T02:15:38;2.28;;;2.05;;
60088;SDS011;45961;53.574;55.878;2022-10-31T02:16:40;6.38;;;2.88;;
60088;SDS011;45961;53.574;55.878;2022-10-31T02:17:41;3.80;;;2.67;;
60088;SDS011;45961;53.574;55.878;2022-10-31T02:18:42;2.95;;;2.35;;
60088;SDS011;45961;53.574;55.878;2022-10-31T02:24:00;1.63;;;1.48;;
60088;SDS011;45961;53.574;55.878;2022-10-31T02:25:46;0.65;;;0.65;;
60088;SDS011;45961;53.574;55.878;2022-10-31T02:32:19;2.30;;;2.10;;
60088;SDS011;45961;53.574;55.878;2022-10-31T02:33:41;1.70;;;1.40;;
60088;SDS011;45961;53.574;55.878;2022-10-31T02:34:59;1.80;;;1.60;;
60088;SDS011;45961;53.574;55.878;2022-10-31T02:36:16;1.90;;;1.80;;
60088;SDS011;45961;53.574;55.878;2022-10-31T02:37:37;2.40;;;2.20;;
60088;SDS011;45961;53.574;55.878;2022-10-31T02:39:08;2.10;;;1.90;;
60088;SDS011;45961;53.574;55.878;2022-10-31T02:40:59;2.35;;;1.88;;
60088;SDS011;45961;53.574;55.878;2022-10-31T02:42:15;2.28;;;1.98;;
60088;SDS011;45961;53.574;55.878;2022-10-31T02:43:22;3.65;;;2.00;;
60088;SDS011;45961;53.574;55.878;2022-10-31T02:44:36;2.63;;;2.42;;
60088;SDS011;45961;53.574;55.878;2022-10-31T02:45:42;2.60;;;2.40;;
60088;SDS011;45961;53.574;55.878;2022-10-31T02:47:51;3.17;;;2.88;;
60088;SDS011;45961;53.574;55.878;2022-10-31T02:48:57;7.32;;;3.28;;
60088;SDS011;45961;53.574;55.878;2022-10-31T02:50:06;3.35;;;3.00;;
60088;SDS011;45961;53.574;55.878;2022-10-31T02:51:14;4.20;;;3.08;;
60088;SDS011;45961;53.574;55.878;2022-10-31T02:52:17;3.40;;;3.10;;
60088;SDS011;45961;53.574;55.878;2022-10-31T02:53:19;2.90;;;2.65;;
60088;SDS011;45961;53.574;55.878;2022-10-31T02:54:24;2.95;;;2.65;;
60088;SDS011;45961;53.574;55.878;2022-10-31T02:56:32;2.85;;;2.63;;
60088;SDS011;45961;53.574;55.878;2022-10-31T02:57:33;3.67;;;3.38;;
60088;SDS011;45961;53.574;55.878;2022-10-31T02:58:37;4.18;;;3.78;;
60088;SDS011;45961;53.574;55.878;2022-10-31T02:59:42;3.97;;;3.58;;
60088;SDS011;45961;53.574;55.878;2022-10-31T03:06:05;3.47;;;3.15;;
60088;SDS011;45961;53.574;55.878;2022-10-31T03:07:21;3.42;;;3.00;;
60088;SDS011;45961;53.574;55.878;2022-10-31T03:08:50;4.40;;;3.28;;
60088;SDS011;45961;53.574;55.878;2022-10-31T03:11:05;3.38;;;3.00;;
60088;SDS011;45961;53.574;55.878;2022-10-31T03:12:17;3.72;;;3.30;;
60088;SDS011;45961;53.574;55.878;2022-10-31T03:15:14;3.72;;;3.00;;
60088;SDS011;45961;53.574;55.878;2022-10-31T03:17:33;5.07;;;4.25;;
60088;SDS011;45961;53.574;55.878;2022-10-31T03:20:08;4.35;;;3.95;;
60088;SDS011;45961;53.574;55.878;2022-10-31T03:21:14;4.55;;;3.97;;
60088;SDS011;45961;53.574;55.878;2022-10-31T03:22:27;5.13;;;4.55;;
60088;SDS011;45961;53.574;55.878;2022-10-31T03:23:33;5.60;;;4.60;;
60088;SDS011;45961;53.574;55.878;2022-10-31T03:24:38;5.78;;;4.82;;
60088;SDS011;45961;53.574;55.878;2022-10-31T03:25:40;6.80;;;4.88;;
60088;SDS011;45961;53.574;55.878;2022-10-31T03:26:44;5.13;;;4.63;;
60088;SDS011;45961;53.574;55.878;2022-10-31T03:27:50;4.18;;;3.75;;
60088;SDS011;45961;53.574;55.878;2022-10-31T03:28:54;5.38;;;3.70;;
60088;SDS011;45961;53.574;55.878;2022-10-31T03:30:01;3.85;;;3.50;;
60088;SDS011;45961;53.574;55.878;2022-10-31T03:31:08;4.15;;;3.75;;
60088;SDS011;45961;53.574;55.878;2022-10-31T03:32:18;3.53;;;3.22;;
60088;SDS011;45961;53.574;55.878;2022-10-31T03:33:27;2.75;;;2.55;;
60088;SDS011;45961;53.574;55.878;2022-10-31T03:34:31;2.75;;;2.53;;
60088;SDS011;45961;53.574;55.878;2022-10-31T03:35:34;3.13;;;2.40;;
60088;SDS011;45961;53.574;55.878;2022-10-31T03:36:37;3.22;;;2.78;;
60088;SDS011;45961;53.574;55.878;2022-10-31T03:37:41;2.47;;;2.28;;
60088;SDS011;45961;53.574;55.878;2022-10-31T03:38:47;3.28;;;2.60;;
60088;SDS011;45961;53.574;55.878;2022-10-31T03:39:51;3.28;;;2.88;;
60088;SDS011;45961;53.574;55.878;2022-10-31T03:40:58;4.68;;;3.08;;
60088;SDS011;45961;53.574;55.878;2022-10-31T03:42:06;3.63;;;3.17;;
60088;SDS011;45961;53.574;55.878;2022-10-31T03:43:13;3.22;;;2.92;;
60088;SDS011;45961;53.574;55.878;2022-10-31T03:44:20;3.15;;;2.85;;
60088;SDS011;45961;53.574;55.878;2022-10-31T03:45:32;3.10;;;2.80;;
60088;SDS011;45961;53.574;55.878;2022-10-31T03:47:02;2.83;;;2.53;;
60088;SDS011;45961;53.574;55.878;2022-10-31T03:48:04;2.90;;;2.70;;
60088;SDS011;45961;53.574;55.878;2022-10-31T03:49:07;2.60;;;2.40;;
60088;SDS011;45961;53.574;55.878;2022-10-31T03:50:09;2.72;;;2.50;;
60088;SDS011;45961;53.574;55.878;2022-10-31T03:51:15;3.08;;;2.78;;
60088;SDS011;45961;53.574;55.878;2022-10-31T03:53:33;2.80;;;2.53;;
60088;SDS011;45961;53.574;55.878;2022-10-31T03:55:55;3.80;;;3.28;;
60088;SDS011;45961;53.574;55.878;2022-10-31T03:57:06;3.15;;;2.65;;
60088;SDS011;45961;53.574;55.878;2022-10-31T03:58:10;2.80;;;2.50;;
60088;SDS011;45961;53.574;55.878;2022-10-31T04:00:28;4.28;;;2.50;;
60088;SDS011;45961;53.574;55.878;2022-10-31T04:01:32;2.88;;;2.67;;
60088;SDS011;45961;53.574;55.878;2022-10-31T04:02:42;2.83;;;2.58;;
60088;SDS011;45961;53.574;55.878;2022-10-31T04:03:57;2.95;;;2.72;;
60088;SDS011;45961;53.574;55.878;2022-10-31T04:04:59;3.13;;;2.83;;
60088;SDS011;45961;53.574;55.878;2022-10-31T04:06:08;4.07;;;2.90;;
60088;SDS011;45961;53.574;55.878;2022-10-31T04:07:14;3.28;;;2.80;;
60088;SDS011;45961;53.574;55.878;2022-10-31T04:08:17;3.60;;;3.30;;
60088;SDS011;45961;53.574;55.878;2022-10-31T04:09:23;4.38;;;3.00;;
60088;SDS011;45961;53.574;55.878;2022-10-31T04:10:27;3.22;;;3.03;;
60088;SDS011;45961;53.574;55.878;2022-10-31T04:11:34;3.30;;;2.83;;
60088;SDS011;45961;53.574;55.878;2022-10-31T04:13:08;2.67;;;2.47;;
60088;SDS011;45961;53.574;55.878;2022-10-31T04:14:19;2.67;;;2.47;;
60088;SDS011;45961;53.574;55.878;2022-10-31T04:15:22;2.90;;;2.70;;
60088;SDS011;45961;53.574;55.878;2022-10-31T04:16:25;3.22;;;2.92;;
60088;SDS011;45961;53.574;55.878;2022-10-31T04:17:27;3.63;;;3.30;;
60088;SDS011;45961;53.574;55.878;2022-10-31T04:18:33;3.92;;;3.20;;
60088;SDS011;45961;53.574;55.878;2022-10-31T04:19:36;3.10;;;2.80;;
60088;SDS011;45961;53.574;55.878;2022-10-31T04:20:40;3.58;;;3.28;;
60088;SDS011;45961;53.574;55.878;2022-10-31T04:21:42;3.20;;;2.90;;
60088;SDS011;45961;53.574;55.878;2022-10-31T04:22:47;3.47;;;3.08;;
60088;SDS011;45961;53.574;55.878;2022-10-31T04:23:48;4.70;;;3.40;;
60088;SDS011;45961;53.574;55.878;2022-10-31T04:24:55;3.45;;;3.15;;
60088;SDS011;45961;53.574;55.878;2022-10-31T04:25:55;4.32;;;3.92;;
60088;SDS011;45961;53.574;55.878;2022-10-31T04:26:57;5.70;;;4.50;;
60088;SDS011;45961;53.574;55.878;2022-10-31T04:28:59;5.78;;;4.10;;
60088;SDS011;45961;53.574;55.878;2022-10-31T04:30:01;4.28;;;3.72;;
60088;SDS011;45961;53.574;55.878;2022-10-31T04:31:05;4.65;;;3.80;;
60088;SDS011;45961;53.574;55.878;2022-10-31T04:32:08;4.20;;;3.70;;
60088;SDS011;45961;53.574;55.878;2022-10-31T04:33:09;6.03;;;4.30;;
60088;SDS011;45961;53.574;55.878;2022-10-31T04:35:14;6.68;;;4.93;;
60088;SDS011;45961;53.574;55.878;2022-10-31T04:36:16;5.20;;;4.65;;
60088;SDS011;45961;53.574;55.878;2022-10-31T04:38:18;7.93;;;6.05;;
60088;SDS011;45961;53.574;55.878;2022-10-31T04:39:19;6.32;;;4.93;;
60088;SDS011;45961;53.574;55.878;2022-10-31T04:40:40;6.60;;;4.97;;
60088;SDS011;45961;53.574;55.878;2022-10-31T04:41:59;5.70;;;4.78;;
60088;SDS011;45961;53.574;55.878;2022-10-31T04:43:00;7.65;;;5.32;;
60088;SDS011;45961;53.574;55.878;2022-10-31T04:44:04;9.25;;;6.97;;
60088;SDS011;45961;53.574;55.878;2022-10-31T04:45:06;8.13;;;6.80;;
60088;SDS011;45961;53.574;55.878;2022-10-31T04:46:09;10.23;;;6.53;;
60088;SDS011;45961;53.574;55.878;2022-10-31T04:47:11;8.52;;;6.20;;
60088;SDS011;45961;53.574;55.878;2022-10-31T04:48:12;6.05;;;5.43;;
60088;SDS011;45961;53.574;55.878;2022-10-31T04:49:18;7.90;;;5.57;;
60088;SDS011;45961;53.574;55.878;2022-10-31T04:50:19;9.68;;;6.95;;
60088;SDS011;45961;53.574;55.878;2022-10-31T04:51:21;10.10;;;7.05;;
60088;SDS011;45961;53.574;55.878;2022-10-31T04:52:23;8.25;;;6.85;;
60088;SDS011;45961;53.574;55.878;2022-10-31T04:53:27;14.45;;;8.30;;
60088;SDS011;45961;53.574;55.878;2022-10-31T04:54:47;12.20;;;8.55;;
60088;SDS011;45961;53.574;55.878;2022-10-31T04:56:26;11.13;;;8.25;;
60088;SDS011;45961;53.574;55.878;2022-10-31T04:57:40;12.80;;;9.27;;
60088;SDS011;45961;53.574;55.878;2022-10-31T04:58:42;13.32;;;9.40;;
60088;SDS011;45961;53.574;55.878;2022-10-31T04:59:44;13.02;;;9.70;;
60088;SDS011;45961;53.574;55.878;2022-10-31T05:00:45;14.48;;;9.13;;
60088;SDS011;45961;53.574;55.878;2022-10-31T05:02:51;13.63;;;9.48;;
60088;SDS011;45961;53.574;55.878;2022-10-31T05:03:53;17.65;;;10.82;;
60088;SDS011;45961;53.574;55.878;2022-10-31T05:04:54;21.50;;;12.50;;
60088;SDS011;45961;53.574;55.878;2022-10-31T05:05:55;22.65;;;14.02;;
60088;SDS011;45961;53.574;55.878;2022-10-31T05:06:56;20.23;;;13.48;;
60088;SDS011;45961;53.574;55.878;2022-10-31T05:07:57;19.80;;;13.27;;
60088;SDS011;45961;53.574;55.878;2022-10-31T05:09:03;18.55;;;13.27;;
60088;SDS011;45961;53.574;55.878;2022-10-31T05:10:05;18.13;;;12.77;;
60088;SDS011;45961;53.574;55.878;2022-10-31T05:11:07;15.93;;;11.50;;
60088;SDS011;45961;53.574;55.878;2022-10-31T05:12:08;15.70;;;11.82;;
60088;SDS011;45961;53.574;55.878;2022-10-31T05:13:29;13.90;;;9.80;;
60088;SDS011;45961;53.574;55.878;2022-10-31T05:14:54;14.90;;;11.20;;
60088;SDS011;45961;53.574;55.878;2022-10-31T05:16:13;19.70;;;13.02;;
60088;SDS011;45961;53.574;55.878;2022-10-31T05:17:50;21.25;;;11.98;;
60088;SDS011;45961;53.574;55.878;2022-10-31T05:19:23;18.85;;;12.00;;
60088;SDS011;45961;53.574;55.878;2022-10-31T05:20:43;17.38;;;10.63;;
60088;SDS011;45961;53.574;55.878;2022-10-31T05:22:05;16.08;;;11.15;;
60088;SDS011;45961;53.574;55.878;2022-10-31T05:23:09;16.55;;;10.77;;
60088;SDS011;45961;53.574;55.878;2022-10-31T05:24:30;19.60;;;9.85;;
60088;SDS011;45961;53.574;55.878;2022-10-31T05:26:57;14.10;;;10.30;;
60088;SDS011;45961;53.574;55.878;2022-10-31T05:27:58;12.77;;;9.55;;
60088;SDS011;45961;53.574;55.878;2022-10-31T05:28:59;14.02;;;10.35;;
60088;SDS011;45961;53.574;55.878;2022-10-31T05:30:02;15.35;;;11.05;;
60088;SDS011;45961;53.574;55.878;2022-10-31T05:31:04;15.50;;;10.82;;
60088;SDS011;45961;53.574;55.878;2022-10-31T05:32:08;17.40;;;12.00;;
60088;SDS011;45961;53.574;55.878;2022-10-31T05:33:28;14.70;;;10.27;;
60088;SDS011;45961;53.574;55.878;2022-10-31T05:34:51;14.55;;;9.90;;
60088;SDS011;45961;53.574;55.878;2022-10-31T05:36:12;13.70;;;10.48;;
60088;SDS011;45961;53.574;55.878;2022-10-31T05:37:26;12.88;;;9.00;;
60088;SDS011;45961;53.574;55.878;2022-10-31T05:38:27;11.93;;;8.85;;
60088;SDS011;45961;53.574;55.878;2022-10-31T05:39:32;12.88;;;9.35;;
60088;SDS011;45961;53.574;55.878;2022-10-31T05:40:38;11.65;;;8.50;;
60088;SDS011;45961;53.574;55.878;2022-10-31T05:41:39;12.45;;;8.77;;
60088;SDS011;45961;53.574;55.878;2022-10-31T05:42:50;15.63;;;10.20;;
60088;SDS011;45961;53.574;55.878;2022-10-31T05:43:52;17.23;;;10.20;;
60088;SDS011;45961;53.574;55.878;2022-10-31T05:44:57;16.75;;;10.45;;
60088;SDS011;45961;53.574;55.878;2022-10-31T05:46:08;15.95;;;10.93;;
60088;SDS011;45961;53.574;55.878;2022-10-31T05:47:35;14.73;;;10.57;;
60088;SDS011;45961;53.574;55.878;2022-10-31T05:49:08;14.15;;;9.57;;
60088;SDS011;45961;53.574;55.878;2022-10-31T05:50:29;14.02;;;9.98;;
60088;SDS011;45961;53.574;55.878;2022-10-31T05:51:40;13.40;;;9.55;;
60088;SDS011;45961;53.574;55.878;2022-10-31T05:52:42;12.25;;;8.57;;
60088;SDS011;45961;53.574;55.878;2022-10-31T05:53:59;12.95;;;8.90;;
60088;SDS011;45961;53.574;55.878;2022-10-31T05:55:01;14.25;;;9.18;;
60088;SDS011;45961;53.574;55.878;2022-10-31T05:56:04;13.82;;;9.13;;
60088;SDS011;45961;53.574;55.878;2022-10-31T05:57:07;15.43;;;9.02;;
60088;SDS011;45961;53.574;55.878;2022-10-31T05:58:09;14.25;;;9.25;;
60088;SDS011;45961;53.574;55.878;2022-10-31T05:59:12;11.68;;;9.07;;
60088;SDS011;45961;53.574;55.878;2022-10-31T06:00:14;11.85;;;8.00;;
60088;SDS011;45961;53.574;55.878;2022-10-31T06:01:21;10.02;;;7.63;;
60088;SDS011;45961;53.574;55.878;2022-10-31T06:02:22;12.38;;;8.10;;
60088;SDS011;45961;53.574;55.878;2022-10-31T06:04:02;9.27;;;7.55;;
60088;SDS011;45961;53.574;55.878;2022-10-31T06:06:05;10.15;;;7.07;;
60088;SDS011;45961;53.574;55.878;2022-10-31T06:07:13;9.25;;;7.47;;
60088;SDS011;45961;53.574;55.878;2022-10-31T06:08:14;11.20;;;6.68;;
60088;SDS011;45961;53.574;55.878;2022-10-31T06:09:16;10.25;;;7.47;;
60088;SDS011;45961;53.574;55.878;2022-10-31T06:10:18;12.00;;;7.85;;
60088;SDS011;45961;53.574;55.878;2022-10-31T06:11:27;8.88;;;7.00;;
60088;SDS011;45961;53.574;55.878;2022-10-31T06:12:37;11.85;;;7.68;;
60088;SDS011;45961;53.574;55.878;2022-10-31T06:13:55;10.73;;;7.93;;
60088;SDS011;45961;53.574;55.878;2022-10-31T06:15:07;9.25;;;6.65;;
60088;SDS011;45961;53.574;55.878;2022-10-31T06:16:09;10.60;;;7.60;;
60088;SDS011;45961;53.574;55.878;2022-10-31T06:17:12;10.32;;;7.20;;
60088;SDS011;45961;53.574;55.878;2022-10-31T06:18:13;9.60;;;7.20;;
60088;SDS011;45961;53.574;55.878;2022-10-31T06:19:21;10.90;;;7.07;;
60088;SDS011;45961;53.574;55.878;2022-10-31T06:20:22;8.70;;;7.22;;
60088;SDS011;45961;53.574;55.878;2022-10-31T06:21:34;10.00;;;7.20;;
60088;SDS011;45961;53.574;55.878;2022-10-31T06:22:35;10.55;;;7.30;;
60088;SDS011;45961;53.574;55.878;2022-10-31T06:23:36;8.32;;;7.45;;
60088;SDS011;45961;53.574;55.878;2022-10-31T06:25:09;11.57;;;7.35;;
60088;SDS011;45961;53.574;55.878;2022-10-31T06:26:15;10.60;;;7.35;;
60088;SDS011;45961;53.574;55.878;2022-10-31T06:27:16;8.75;;;6.93;;
60088;SDS011;45961;53.574;55.878;2022-10-31T06:29:25;11.00;;;7.70;;
60088;SDS011;45961;53.574;55.878;2022-10-31T06:30:49;14.10;;;8.63;;
60088;SDS011;45961;53.574;55.878;2022-10-31T06:31:51;13.48;;;9.18;;
60088;SDS011;45961;53.574;55.878;2022-10-31T06:32:52;12.57;;;9.52;;
60088;SDS011;45961;53.574;55.878;2022-10-31T06:33:54;11.85;;;8.75;;
60088;SDS011;45961;53.574;55.878;2022-10-31T06:34:56;14.10;;;9.57;;
60088;SDS011;45961;53.574;55.878;2022-10-31T06:35:58;12.40;;;9.38;;
60088;SDS011;45961;53.574;55.878;2022-10-31T06:37:02;15.13;;;9.82;;
60088;SDS011;45961;53.574;55.878;2022-10-31T06:38:04;14.63;;;9.68;;
60088;SDS011;45961;53.574;55.878;2022-10-31T06:39:12;16.40;;;10.43;;
60088;SDS011;45961;53.574;55.878;2022-10-31T06:40:14;15.30;;;10.38;;
60088;SDS011;45961;53.574;55.878;2022-10-31T06:41:40;17.35;;;12.02;;
60088;SDS011;45961;53.574;55.878;2022-10-31T06:42:44;20.20;;;12.65;;
60088;SDS011;45961;53.574;55.878;2022-10-31T06:43:46;20.90;;;13.63;;
60088;SDS011;45961;53.574;55.878;2022-10-31T06:45:03;23.20;;;13.48;;
60088;SDS011;45961;53.574;55.878;2022-10-31T06:46:40;22.48;;;12.48;;
60088;SDS011;45961;53.574;55.878;2022-10-31T06:48:01;19.70;;;13.18;;
60088;SDS011;45961;53.574;55.878;2022-10-31T06:49:06;19.95;;;12.70;;
60088;SDS011;45961;53.574;55.878;2022-10-31T06:50:24;20.30;;;12.45;;
60088;SDS011;45961;53.574;55.878;2022-10-31T06:51:26;20.55;;;12.77;;
60088;SDS011;45961;53.574;55.878;2022-10-31T06:52:27;18.77;;;12.25;;
60088;SDS011;45961;53.574;55.878;2022-10-31T06:53:29;16.50;;;10.55;;
60088;SDS011;45961;53.574;55.878;2022-10-31T06:54:32;16.50;;;11.15;;
60088;SDS011;45961;53.574;55.878;2022-10-31T06:55:33;17.35;;;11.15;;
60088;SDS011;45961;53.574;55.878;2022-10-31T06:56:35;19.52;;;11.55;;
60088;SDS011;45961;53.574;55.878;2022-10-31T06:57:37;19.33;;;12.85;;
60088;SDS011;45961;53.574;55.878;2022-10-31T06:59:41;19.77;;;12.35;;
60088;SDS011;45961;53.574;55.878;2022-10-31T07:00:58;21.73;;;12.60;;
60088;SDS011;45961;53.574;55.878;2022-10-31T07:01:59;20.05;;;13.10;;
60088;SDS011;45961;53.574;55.878;2022-10-31T07:03:02;22.20;;;13.55;;
60088;SDS011;45961;53.574;55.878;2022-10-31T07:04:05;22.98;;;15.00;;
60088;SDS011;45961;53.574;55.878;2022-10-31T07:05:08;29.05;;;16.02;;
60088;SDS011;45961;53.574;55.878;2022-10-31T07:06:09;25.25;;;16.42;;
60088;SDS011;45961;53.574;55.878;2022-10-31T07:07:12;27.40;;;15.80;;
60088;SDS011;45961;53.574;55.878;2022-10-31T07:08:14;28.23;;;16.50;;
60088;SDS011;45961;53.574;55.878;2022-10-31T07:10:16;21.88;;;14.43;;
60088;SDS011;45961;53.574;55.878;2022-10-31T07:11:26;24.67;;;15.73;;
60088;SDS011;45961;53.574;55.878;2022-10-31T07:12:29;21.95;;;15.02;;
60088;SDS011;45961;53.574;55.878;2022-10-31T07:13:32;23.08;;;14.55;;